• Join FlightAware (Why Join?)
  • Login
  • US Flag 
02:14AM EDT


 

Airport Tracker/Info


-or-


 

Live Flight TrackerFlight Track Log ✈ EJA646 ✈ 18-Apr-2013 ✈ KBHM - KDAL

Flight Track Log - Related Links

Times and Time Zones

All times are in EDT time to prevent confusion due to time zone crossing. See the EJA646 flight status page for this flight to view local times or setup timezone preferences in your user account.

Time Position Orientation Groundspeed Altitude Reporting Facility
EDT Latitude Longitude Course Direction KTS MPH feet Rate Location/Type
07:24PM 33.5400 -86.8028 242° Southwest 181 208 2,800  Level Atlanta Center
07:25PM 33.4942 -86.8014 179° South 198 228 5,400 2,700 Climbing Atlanta Center
07:26PM 33.4300 -86.7769 162° South 197 227 8,000 2,520 Climbing Atlanta Center
07:27PM 33.3594 -86.7472 161° South 242 278 10,500 1,980 Climbing Atlanta Center
07:28PM 33.2911 -86.7228 163° South 273 314 12,000 1,680 Climbing Atlanta Center
07:29PM 33.2083 -86.6928 163° South 297 342 13,900 1,800 Climbing Atlanta Center
07:30PM 33.1256 -86.6606 162° South 302 348 15,600 1,860 Climbing Atlanta Center
07:31PM 33.0447 -86.6283 162° South 307 353 17,700 1,800 Climbing Atlanta Center
07:32PM 32.9600 -86.5986 164° South 307 353 19,200 1,500 Climbing Atlanta Center
07:33PM 32.8708 -86.5614 161° South 324 373 20,700 1,500 Climbing Atlanta Center
07:34PM 32.7756 -86.5292 164° South 341 392 22,300 1,320 Climbing Atlanta Center
07:35PM 32.6803 -86.4919 162° South 352 405 23,400 900 Climbing Atlanta Center
07:36PM 32.5786 -86.4619 166° South 365 420 24,100 720 Climbing Atlanta Center
07:37PM 32.4981 -86.5261 214° Southwest 340 391 24,900 900 Climbing Atlanta Center
07:38PM 32.4400 -86.6108 231° Southwest 322 371 26,000 960 Climbing Atlanta Center
07:39PM 32.3775 -86.7000 230° Southwest 334 384 26,900 900 Climbing Atlanta Center
07:40PM 32.3131 -86.7817 227° Southwest 341 392 27,800 960 Climbing Atlanta Center
07:41PM 32.2461 -86.8803 231° Southwest 351 404 28,900 960 Climbing Atlanta Center
07:42PM 32.1858 -86.9667 231° Southwest 351 404 29,800 900 Climbing Atlanta Center
07:43PM 32.1253 -87.0506 230° Southwest 351 404 30,700 660 Climbing Atlanta Center
07:45PM 31.9944 -87.2336 230° Southwest 352 405 32,000 360 Climbing Houston Center
07:46PM 31.9142 -87.3467 230° Southwest 375 432 32,000  Level Houston Center
07:47PM 31.8469 -87.4422 230° Southwest 379 436 32,000  Level Houston Center
07:48PM 31.7803 -87.5361 230° Southwest 376 433 32,000  Level Houston Center
07:49PM 31.7144 -87.6294 230° Southwest 373 429 32,000  Level Houston Center
07:50PM 31.6492 -87.7211 230° Southwest 369 425 32,000  Level Houston Center
07:51PM 31.5836 -87.8128 230° Southwest 368 423 32,000  Level Houston Center
07:53PM 31.5061 -87.9214 230° Southwest 363 418 32,000 480 Level Houston Center
07:54PM 31.4475 -88.0128 233° Southwest 356 410 33,000 960 Climbing Houston Center
07:55PM 31.4214 -88.1158 253° West 333 383 34,000 480 Climbing Houston Center
07:56PM 31.3967 -88.2222 255° West 341 392 34,000 480 Level Houston Center
07:57PM 31.3656 -88.3528 254° West 349 402 35,100 960 Climbing Houston Center
07:58PM 31.3403 -88.4558 254° West 333 383 36,000 420 Climbing Houston Center
07:59PM 31.3161 -88.5644 255° West 345 397 36,000  Level Houston Center
08:00PM 31.2889 -88.6767 254° West 357 411 36,000  Level Houston Center
08:01PM 31.2617 -88.7878 254° West 359 413 36,000  Level Houston Center
08:02PM 31.2283 -88.9217 254° West 360 414 36,000  Level Houston Center
08:03PM 31.2039 -89.0236 254° West 359 413 36,000 420 Level Houston Center
08:04PM 31.1889 -89.1344 261° West 356 410 36,900 960 Climbing Houston Center
08:05PM 31.1933 -89.2644 272° West 337 388 38,000 480 Climbing Houston Center
08:06PM 31.1967 -89.3733 272° West 337 388 38,000  Level Houston Center
08:07PM 31.1997 -89.4836 272° West 339 390 38,000  Level Houston Center
08:08PM 31.2036 -89.5961 272° West 346 398 38,000  Level Houston Center
08:09PM 31.2069 -89.7067 272° West 344 396 38,000  Level Houston Center
08:10PM 31.2100 -89.8397 272° West 343 395 38,000  Level Houston Center
08:11PM 31.2139 -89.9500 272° West 344 396 38,000  Level Houston Center
08:12PM 31.2161 -90.0594 271° West 341 392 38,000  Level Houston Center
08:13PM 31.2200 -90.1694 272° West 342 394 38,000  Level Houston Center
08:14PM 31.2222 -90.2794 271° West 342 394 38,000  Level Houston Center
08:15PM 31.2247 -90.3900 272° West 343 395 38,000  Level Houston Center
08:16PM 31.2283 -90.5214 272° West 339 390 38,000  Level Houston Center
08:17PM 31.2294 -90.6333 271° West 347 399 38,000  Level Houston Center
08:18PM 31.2325 -90.7433 272° West 344 396 38,000  Level Houston Center
08:19PM 31.2361 -90.8547 272° West 344 396 38,000  Level Houston Center
08:20PM 31.2364 -90.9639 270° West 338 389 38,000 420 Level Houston Center
08:21PM 31.2478 -91.0900 276° West 329 379 38,900 840 Climbing Houston Center
08:23PM 31.2686 -91.1894 284° West 319 367 39,800 480 Climbing Houston Center
08:24PM 31.2908 -91.2944 284° West 323 372 40,000 60 Climbing Houston Center
08:25PM 31.3097 -91.4014 282° West 337 388 40,000  Level Houston Center
08:26PM 31.3294 -91.5083 282° West 337 388 40,000 360 Level Houston Center
08:27PM 31.3503 -91.6156 283° West 339 390 40,800 480 Climbing Houston Center
08:28PM 31.3744 -91.7425 283° West 336 387 41,000 60 Climbing Houston Center
08:29PM 31.3950 -91.8514 282° West 342 394 41,000  Level Houston Center
08:30PM 31.4158 -91.9619 282° West 348 400 41,000  Level Houston Center
08:31PM 31.4444 -92.0700 287° West 349 402 41,000  Level Houston Center
08:32PM 31.4933 -92.1703 300° West 356 410 41,000  Level Houston Center
08:33PM 31.5564 -92.2886 302° West 360 414 41,000  Level Houston Center
08:34PM 31.6128 -92.3817 305° West 357 411 41,000  Level Houston Center
08:35PM 31.6689 -92.4756 305° West 355 409 41,000  Level Houston Center
08:36PM 31.7278 -92.5650 308° West 351 404 41,000  Level Houston Center
08:37PM 31.7750 -92.6589 301° West 342 394 41,000  Level Houston Center
08:38PM 31.8044 -92.7817 286° West 330 380 41,000  Level Houston Center
08:39PM 31.8267 -92.8819 285° West 324 373 41,000  Level Houston Center
08:40PM 31.8503 -92.9856 285° West 327 376 41,000  Level Houston Center
08:41PM 31.8739 -93.0897 285° West 330 380 41,000  Level Houston Center
08:42PM 31.8861 -93.1392 286° West 327 376 41,000  Level Fort Worth Center
08:43PM 31.9086 -93.2433 284° West 335 386 41,000  Level Fort Worth Center
08:44PM 31.9350 -93.3547 286° West 335 386 41,000  Level Fort Worth Center
08:45PM 31.9594 -93.4614 285° West 340 391 41,000  Level Fort Worth Center
08:46PM 31.9814 -93.5683 284° West 340 391 41,000  Level Fort Worth Center
08:47PM 32.0056 -93.6775 285° West 340 391 41,000  Level Fort Worth Center
08:48PM 32.0275 -93.7819 284° West 335 386 41,000  Level Fort Worth Center
08:49PM 32.0514 -93.8914 284° West 335 386 41,000  Level Fort Worth Center
08:50PM 32.0775 -94.0006 286° West 335 386 41,000  Level Fort Worth Center
08:51PM 32.0989 -94.1053 284° West 340 391 41,000  Level Fort Worth Center
08:52PM 32.1228 -94.2147 284° West 340 391 41,000  Level Fort Worth Center
08:53PM 32.1464 -94.3244 284° West 340 391 41,000  Level Fort Worth Center
08:54PM 32.1717 -94.4289 286° West 335 386 41,000 -300 Level Fort Worth Center
08:55PM 32.2097 -94.5308 294° West 335 386 40,400 -1,380 Descending Fort Worth Center
08:56PM 32.2742 -94.6122 313° West 330 380 38,300 -2,280 Descending Fort Worth Center
08:57PM 32.3386 -94.6989 311° West 344 396 35,900 -2,760 Descending Fort Worth Center
08:58PM 32.3844 -94.7958 299° West 344 396 32,800 -3,000 Descending Fort Worth Center
08:59PM 32.3972 -94.9014 278° West 323 372 29,900 -3,000 Descending Fort Worth Center
09:00PM 32.4183 -95.0311 281° West 353 406 26,800 -2,940 Descending Fort Worth Center
09:01PM 32.4311 -95.1464 278° West 370 426 24,100 -1,440 Descending Fort Worth Center
09:02PM 32.4453 -95.2544 279° West 345 397 24,000 -60 Descending Fort Worth Center
09:03PM 32.4594 -95.3478 280° West 333 383 24,000 -420 Level Fort Worth Center
09:04PM 32.4656 -95.4608 274° West 333 383 23,200 -1,260 Descending Fort Worth Center
09:05PM 32.4797 -95.5689 279° West 333 383 21,500 -1,800 Descending Fort Worth Center
09:06PM 32.4894 -95.6769 276° West 333 383 19,700 -1,860 Descending Fort Worth Center
09:07PM 32.5036 -95.7925 278° West 333 383 17,800 -1,680 Descending Fort Worth Center
09:08PM 32.5108 -95.8736 276° West 304 350 16,400 -1,500 Descending Fort Worth Center
09:09PM 32.5225 -95.9719 278° West 277 319 14,900 -1,440 Descending Fort Worth Center
09:10PM 32.5339 -96.0508 280° West 272 313 13,600 -1,500 Descending Fort Worth Center
09:11PM 32.5431 -96.1467 276° West 272 313 12,000 -1,440 Descending Fort Worth Center
09:12PM 32.5500 -96.2231 276° West 272 313 10,800 -1,380 Descending Fort Worth Center
09:13PM 32.5594 -96.3167 277° West 267 307 9,300 -1,800 Descending Fort Worth Center
09:14PM 32.5642 -96.3856 275° West 250 288 7,300 -1,680 Descending Fort Worth Center
09:15PM 32.5878 -96.4642 290° West 231 266 6,000 -660 Descending Fort Worth Center
09:16PM 32.6236 -96.5206 307° West 231 266 6,000 -600 Level Fort Worth Center
09:17PM 32.6658 -96.5867 307° West 241 277 4,900 -1,080 Descending Fort Worth Center
09:18PM 32.7058 -96.6481 308° West 241 277 3,900 -1,020 Descending Fort Worth Center
09:19PM 32.7500 -96.7167 307° West 211 243 2,800 -840 Descending Dallas / Fort Worth TRACON
09:20PM 32.7833 -96.7667 308° West 180 207 2,200 -600 Descending Dallas / Fort Worth TRACON
09:21PM 32.8000 -96.8000 301° West 132 152 1,600 -600 Descending Dallas / Fort Worth TRACON
09:22PM 32.8333 -96.8167 337° Northwest 110 127 1,000 -540 Descending Dallas / Fort Worth TRACON
09:23PM 32.8500 -96.8333 320° Northwest 128 147 500 -480 Descending Dallas / Fort Worth TRACON
09:27PM 32.8333 -96.8500 301° West  Level FlightAware Approximate
09:34PM 32.8471 -96.8518 301° West  Level Estimated
09:35PM 32.8471 -96.8518 301° West  Level Estimated
09:36PM 32.8471 -96.8518 301° West  Level Estimated